sensor_id;sensor_type;location;lat;lon;timestamp;P1;durP1;ratioP1;P2;durP2;ratioP2
77202;SDS011;66327;50.096;8.498;2023-02-12T00:01:39;44.63;;;15.65;;
77202;SDS011;66327;50.096;8.498;2023-02-12T00:04:05;40.85;;;13.55;;
77202;SDS011;66327;50.096;8.498;2023-02-12T00:06:31;51.05;;;16.25;;
77202;SDS011;66327;50.096;8.498;2023-02-12T00:08:58;46.60;;;15.65;;
77202;SDS011;66327;50.096;8.498;2023-02-12T00:11:25;49.67;;;17.45;;
77202;SDS011;66327;50.096;8.498;2023-02-12T00:13:54;48.20;;;15.85;;
77202;SDS011;66327;50.096;8.498;2023-02-12T00:16:24;44.92;;;14.65;;
77202;SDS011;66327;50.096;8.498;2023-02-12T00:18:52;45.97;;;14.70;;
77202;SDS011;66327;50.096;8.498;2023-02-12T00:23:46;40.15;;;14.75;;
77202;SDS011;66327;50.096;8.498;2023-02-12T00:26:14;52.10;;;13.88;;
77202;SDS011;66327;50.096;8.498;2023-02-12T00:28:42;41.03;;;14.30;;
77202;SDS011;66327;50.096;8.498;2023-02-12T00:31:10;44.08;;;16.05;;
77202;SDS011;66327;50.096;8.498;2023-02-12T00:33:41;45.70;;;14.82;;
77202;SDS011;66327;50.096;8.498;2023-02-12T00:36:08;43.53;;;16.05;;
77202;SDS011;66327;50.096;8.498;2023-02-12T00:38:38;38.15;;;13.98;;
77202;SDS011;66327;50.096;8.498;2023-02-12T00:41:04;42.55;;;14.05;;
77202;SDS011;66327;50.096;8.498;2023-02-12T00:43:31;35.75;;;12.95;;
77202;SDS011;66327;50.096;8.498;2023-02-12T00:45:57;39.38;;;15.45;;
77202;SDS011;66327;50.096;8.498;2023-02-12T00:48:24;43.42;;;13.80;;
77202;SDS011;66327;50.096;8.498;2023-02-12T00:50:50;33.50;;;13.52;;
77202;SDS011;66327;50.096;8.498;2023-02-12T00:53:17;36.35;;;13.95;;
77202;SDS011;66327;50.096;8.498;2023-02-12T00:55:45;36.88;;;13.00;;
77202;SDS011;66327;50.096;8.498;2023-02-12T00:58:12;42.63;;;14.60;;
77202;SDS011;66327;50.096;8.498;2023-02-12T01:00:38;40.05;;;15.02;;
77202;SDS011;66327;50.096;8.498;2023-02-12T01:03:05;35.42;;;13.50;;
77202;SDS011;66327;50.096;8.498;2023-02-12T01:05:31;38.10;;;13.70;;
77202;SDS011;66327;50.096;8.498;2023-02-12T01:07:58;40.83;;;16.08;;
77202;SDS011;66327;50.096;8.498;2023-02-12T01:10:24;40.38;;;17.48;;
77202;SDS011;66327;50.096;8.498;2023-02-12T01:12:51;38.45;;;17.13;;
77202;SDS011;66327;50.096;8.498;2023-02-12T01:15:17;37.50;;;15.30;;
77202;SDS011;66327;50.096;8.498;2023-02-12T01:17:44;36.97;;;14.55;;
77202;SDS011;66327;50.096;8.498;2023-02-12T01:20:13;35.70;;;14.70;;
77202;SDS011;66327;50.096;8.498;2023-02-12T01:22:42;35.47;;;14.50;;
77202;SDS011;66327;50.096;8.498;2023-02-12T01:25:09;32.53;;;13.23;;
77202;SDS011;66327;50.096;8.498;2023-02-12T01:27:35;38.13;;;13.25;;
77202;SDS011;66327;50.096;8.498;2023-02-12T01:30:02;38.72;;;13.55;;
77202;SDS011;66327;50.096;8.498;2023-02-12T01:32:30;34.45;;;13.38;;
77202;SDS011;66327;50.096;8.498;2023-02-12T01:34:56;35.63;;;13.40;;
77202;SDS011;66327;50.096;8.498;2023-02-12T01:37:23;35.90;;;14.18;;
77202;SDS011;66327;50.096;8.498;2023-02-12T01:39:49;39.38;;;13.77;;
77202;SDS011;66327;50.096;8.498;2023-02-12T01:42:15;37.22;;;14.30;;
77202;SDS011;66327;50.096;8.498;2023-02-12T01:44:44;32.50;;;12.90;;
77202;SDS011;66327;50.096;8.498;2023-02-12T01:47:31;33.97;;;13.52;;
77202;SDS011;66327;50.096;8.498;2023-02-12T01:49:57;42.33;;;12.70;;
77202;SDS011;66327;50.096;8.498;2023-02-12T01:52:28;36.00;;;13.43;;
77202;SDS011;66327;50.096;8.498;2023-02-12T01:54:56;39.95;;;12.85;;
77202;SDS011;66327;50.096;8.498;2023-02-12T01:57:25;42.35;;;15.63;;
77202;SDS011;66327;50.096;8.498;2023-02-12T01:59:53;41.15;;;14.32;;
77202;SDS011;66327;50.096;8.498;2023-02-12T02:02:21;39.92;;;15.27;;
77202;SDS011;66327;50.096;8.498;2023-02-12T02:04:49;36.00;;;14.88;;
77202;SDS011;66327;50.096;8.498;2023-02-12T02:07:17;36.58;;;14.77;;
77202;SDS011;66327;50.096;8.498;2023-02-12T02:09:43;41.17;;;14.00;;
77202;SDS011;66327;50.096;8.498;2023-02-12T02:12:09;31.80;;;12.82;;
77202;SDS011;66327;50.096;8.498;2023-02-12T02:14:55;43.08;;;13.70;;
77202;SDS011;66327;50.096;8.498;2023-02-12T02:17:38;37.30;;;14.68;;
77202;SDS011;66327;50.096;8.498;2023-02-12T02:23:08;47.17;;;17.27;;
77202;SDS011;66327;50.096;8.498;2023-02-12T02:26:08;34.97;;;14.57;;
77202;SDS011;66327;50.096;8.498;2023-02-12T02:37:17;41.65;;;14.45;;
77202;SDS011;66327;50.096;8.498;2023-02-12T02:39:50;41.88;;;15.68;;
77202;SDS011;66327;50.096;8.498;2023-02-12T02:44:52;38.28;;;15.38;;
77202;SDS011;66327;50.096;8.498;2023-02-12T02:47:28;35.80;;;14.07;;
77202;SDS011;66327;50.096;8.498;2023-02-12T02:50:00;40.85;;;14.48;;
77202;SDS011;66327;50.096;8.498;2023-02-12T02:52:40;39.75;;;13.98;;
77202;SDS011;66327;50.096;8.498;2023-02-12T02:55:10;35.42;;;14.52;;
77202;SDS011;66327;50.096;8.498;2023-02-12T02:57:45;33.25;;;12.95;;
77202;SDS011;66327;50.096;8.498;2023-02-12T03:00:34;30.58;;;12.23;;
77202;SDS011;66327;50.096;8.498;2023-02-12T03:03:48;33.25;;;13.15;;
77202;SDS011;66327;50.096;8.498;2023-02-12T03:11:59;33.20;;;12.80;;
77202;SDS011;66327;50.096;8.498;2023-02-12T03:14:30;32.38;;;13.27;;
77202;SDS011;66327;50.096;8.498;2023-02-12T03:17:05;37.28;;;13.07;;
77202;SDS011;66327;50.096;8.498;2023-02-12T03:19:39;34.63;;;12.30;;
77202;SDS011;66327;50.096;8.498;2023-02-12T03:22:08;34.88;;;13.35;;
77202;SDS011;66327;50.096;8.498;2023-02-12T03:24:39;36.03;;;13.32;;
77202;SDS011;66327;50.096;8.498;2023-02-12T03:29:39;34.05;;;13.10;;
77202;SDS011;66327;50.096;8.498;2023-02-12T03:32:12;34.22;;;13.13;;
77202;SDS011;66327;50.096;8.498;2023-02-12T03:37:39;33.65;;;12.80;;
77202;SDS011;66327;50.096;8.498;2023-02-12T03:43:14;35.60;;;13.10;;
77202;SDS011;66327;50.096;8.498;2023-02-12T03:50:57;36.33;;;12.52;;
77202;SDS011;66327;50.096;8.498;2023-02-12T03:53:28;32.53;;;13.13;;
77202;SDS011;66327;50.096;8.498;2023-02-12T03:55:58;35.10;;;12.52;;
77202;SDS011;66327;50.096;8.498;2023-02-12T03:58:27;34.42;;;13.90;;
77202;SDS011;66327;50.096;8.498;2023-02-12T04:00:54;32.33;;;13.30;;
77202;SDS011;66327;50.096;8.498;2023-02-12T04:03:22;35.25;;;12.77;;
77202;SDS011;66327;50.096;8.498;2023-02-12T04:05:49;32.05;;;12.75;;
77202;SDS011;66327;50.096;8.498;2023-02-12T04:08:15;35.08;;;12.07;;
77202;SDS011;66327;50.096;8.498;2023-02-12T04:10:46;34.72;;;13.10;;
77202;SDS011;66327;50.096;8.498;2023-02-12T04:13:32;33.72;;;12.77;;
77202;SDS011;66327;50.096;8.498;2023-02-12T04:16:32;38.35;;;13.15;;
77202;SDS011;66327;50.096;8.498;2023-02-12T04:19:03;33.42;;;12.50;;
77202;SDS011;66327;50.096;8.498;2023-02-12T04:24:08;31.50;;;11.90;;
77202;SDS011;66327;50.096;8.498;2023-02-12T04:26:53;33.78;;;12.82;;
77202;SDS011;66327;50.096;8.498;2023-02-12T04:29:25;38.38;;;13.32;;
77202;SDS011;66327;50.096;8.498;2023-02-12T04:37:52;31.80;;;11.75;;
77202;SDS011;66327;50.096;8.498;2023-02-12T04:40:23;30.02;;;12.07;;
77202;SDS011;66327;50.096;8.498;2023-02-12T04:42:50;33.67;;;13.57;;
77202;SDS011;66327;50.096;8.498;2023-02-12T04:45:25;31.17;;;12.50;;
77202;SDS011;66327;50.096;8.498;2023-02-12T04:47:53;30.30;;;11.60;;
77202;SDS011;66327;50.096;8.498;2023-02-12T04:50:20;31.63;;;12.18;;
77202;SDS011;66327;50.096;8.498;2023-02-12T04:52:46;28.02;;;11.10;;
77202;SDS011;66327;50.096;8.498;2023-02-12T04:55:13;30.08;;;12.00;;
77202;SDS011;66327;50.096;8.498;2023-02-12T04:57:40;27.48;;;11.77;;
77202;SDS011;66327;50.096;8.498;2023-02-12T05:00:07;32.13;;;12.73;;
77202;SDS011;66327;50.096;8.498;2023-02-12T05:02:37;31.35;;;12.00;;
77202;SDS011;66327;50.096;8.498;2023-02-12T05:05:04;31.42;;;12.38;;
77202;SDS011;66327;50.096;8.498;2023-02-12T05:07:31;30.55;;;11.85;;
77202;SDS011;66327;50.096;8.498;2023-02-12T05:09:57;29.25;;;11.80;;
77202;SDS011;66327;50.096;8.498;2023-02-12T05:12:23;31.92;;;12.10;;
77202;SDS011;66327;50.096;8.498;2023-02-12T05:14:50;30.15;;;11.82;;
77202;SDS011;66327;50.096;8.498;2023-02-12T05:17:16;30.08;;;11.95;;
77202;SDS011;66327;50.096;8.498;2023-02-12T05:19:42;30.35;;;11.20;;
77202;SDS011;66327;50.096;8.498;2023-02-12T05:22:09;33.45;;;12.40;;
77202;SDS011;66327;50.096;8.498;2023-02-12T05:24:36;31.08;;;12.13;;
77202;SDS011;66327;50.096;8.498;2023-02-12T05:27:02;33.53;;;12.30;;
77202;SDS011;66327;50.096;8.498;2023-02-12T05:29:28;35.28;;;12.68;;
77202;SDS011;66327;50.096;8.498;2023-02-12T05:31:55;31.90;;;12.00;;
77202;SDS011;66327;50.096;8.498;2023-02-12T05:34:21;29.35;;;12.07;;
77202;SDS011;66327;50.096;8.498;2023-02-12T05:36:48;34.72;;;12.50;;
77202;SDS011;66327;50.096;8.498;2023-02-12T05:39:14;30.33;;;11.57;;
77202;SDS011;66327;50.096;8.498;2023-02-12T05:41:41;32.58;;;11.80;;
77202;SDS011;66327;50.096;8.498;2023-02-12T05:44:08;30.70;;;12.25;;
77202;SDS011;66327;50.096;8.498;2023-02-12T05:46:37;32.15;;;11.45;;
77202;SDS011;66327;50.096;8.498;2023-02-12T05:49:04;30.77;;;12.07;;
77202;SDS011;66327;50.096;8.498;2023-02-12T05:51:30;37.35;;;13.30;;
77202;SDS011;66327;50.096;8.498;2023-02-12T05:53:58;32.80;;;13.18;;
77202;SDS011;66327;50.096;8.498;2023-02-12T05:56:27;30.48;;;11.90;;
77202;SDS011;66327;50.096;8.498;2023-02-12T05:58:56;27.98;;;11.82;;
77202;SDS011;66327;50.096;8.498;2023-02-12T06:01:26;32.85;;;12.48;;
77202;SDS011;66327;50.096;8.498;2023-02-12T06:04:04;27.42;;;11.70;;
77202;SDS011;66327;50.096;8.498;2023-02-12T06:06:31;33.10;;;12.48;;
77202;SDS011;66327;50.096;8.498;2023-02-12T06:08:58;29.10;;;12.45;;
77202;SDS011;66327;50.096;8.498;2023-02-12T06:11:25;31.25;;;13.18;;
77202;SDS011;66327;50.096;8.498;2023-02-12T06:13:52;30.85;;;12.10;;
77202;SDS011;66327;50.096;8.498;2023-02-12T06:16:19;34.40;;;12.75;;
77202;SDS011;66327;50.096;8.498;2023-02-12T06:18:48;30.42;;;12.40;;
77202;SDS011;66327;50.096;8.498;2023-02-12T06:21:15;29.85;;;12.15;;
77202;SDS011;66327;50.096;8.498;2023-02-12T06:23:43;33.50;;;12.77;;
77202;SDS011;66327;50.096;8.498;2023-02-12T06:26:09;29.50;;;12.25;;
77202;SDS011;66327;50.096;8.498;2023-02-12T06:28:36;31.75;;;12.35;;
77202;SDS011;66327;50.096;8.498;2023-02-12T06:31:02;29.15;;;11.57;;
77202;SDS011;66327;50.096;8.498;2023-02-12T06:33:29;34.90;;;13.75;;
77202;SDS011;66327;50.096;8.498;2023-02-12T06:35:56;33.05;;;13.00;;
77202;SDS011;66327;50.096;8.498;2023-02-12T06:38:23;35.10;;;13.50;;
77202;SDS011;66327;50.096;8.498;2023-02-12T06:40:49;32.50;;;13.05;;
77202;SDS011;66327;50.096;8.498;2023-02-12T06:43:15;33.85;;;13.50;;
77202;SDS011;66327;50.096;8.498;2023-02-12T06:45:42;32.17;;;12.63;;
77202;SDS011;66327;50.096;8.498;2023-02-12T06:48:08;32.50;;;12.70;;
77202;SDS011;66327;50.096;8.498;2023-02-12T06:50:35;30.23;;;12.60;;
77202;SDS011;66327;50.096;8.498;2023-02-12T06:53:01;27.75;;;12.45;;
77202;SDS011;66327;50.096;8.498;2023-02-12T06:55:28;29.25;;;11.48;;
77202;SDS011;66327;50.096;8.498;2023-02-12T06:57:54;32.05;;;13.63;;
77202;SDS011;66327;50.096;8.498;2023-02-12T07:00:21;31.17;;;13.48;;
77202;SDS011;66327;50.096;8.498;2023-02-12T07:02:51;32.95;;;14.23;;
77202;SDS011;66327;50.096;8.498;2023-02-12T07:05:21;33.45;;;13.77;;
77202;SDS011;66327;50.096;8.498;2023-02-12T07:07:48;34.67;;;13.48;;
77202;SDS011;66327;50.096;8.498;2023-02-12T07:10:14;39.25;;;15.15;;
77202;SDS011;66327;50.096;8.498;2023-02-12T07:12:41;42.88;;;15.38;;
77202;SDS011;66327;50.096;8.498;2023-02-12T07:15:08;40.50;;;15.98;;
77202;SDS011;66327;50.096;8.498;2023-02-12T07:17:34;39.72;;;16.48;;
77202;SDS011;66327;50.096;8.498;2023-02-12T07:20:01;38.33;;;15.20;;
77202;SDS011;66327;50.096;8.498;2023-02-12T07:22:28;40.15;;;14.95;;
77202;SDS011;66327;50.096;8.498;2023-02-12T07:24:54;36.20;;;14.73;;
77202;SDS011;66327;50.096;8.498;2023-02-12T07:27:21;37.40;;;15.60;;
77202;SDS011;66327;50.096;8.498;2023-02-12T07:29:47;38.40;;;15.13;;
77202;SDS011;66327;50.096;8.498;2023-02-12T07:32:14;30.35;;;12.02;;
77202;SDS011;66327;50.096;8.498;2023-02-12T07:34:40;35.13;;;13.07;;
77202;SDS011;66327;50.096;8.498;2023-02-12T07:37:06;33.40;;;12.35;;
77202;SDS011;66327;50.096;8.498;2023-02-12T07:39:33;35.25;;;13.57;;
77202;SDS011;66327;50.096;8.498;2023-02-12T07:41:59;37.83;;;13.45;;
77202;SDS011;66327;50.096;8.498;2023-02-12T07:44:26;38.55;;;14.98;;
77202;SDS011;66327;50.096;8.498;2023-02-12T07:46:52;34.85;;;13.48;;
77202;SDS011;66327;50.096;8.498;2023-02-12T07:49:19;35.80;;;14.45;;
77202;SDS011;66327;50.096;8.498;2023-02-12T07:54:14;30.88;;;13.15;;
77202;SDS011;66327;50.096;8.498;2023-02-12T07:56:41;39.78;;;14.10;;
77202;SDS011;66327;50.096;8.498;2023-02-12T07:59:12;38.38;;;13.68;;
77202;SDS011;66327;50.096;8.498;2023-02-12T08:01:40;33.45;;;13.75;;
77202;SDS011;66327;50.096;8.498;2023-02-12T08:04:09;34.97;;;14.75;;
77202;SDS011;66327;50.096;8.498;2023-02-12T08:06:39;37.92;;;15.73;;
77202;SDS011;66327;50.096;8.498;2023-02-12T08:09:08;36.22;;;14.48;;
77202;SDS011;66327;50.096;8.498;2023-02-12T08:11:36;34.08;;;13.95;;
77202;SDS011;66327;50.096;8.498;2023-02-12T08:14:03;39.55;;;13.90;;
77202;SDS011;66327;50.096;8.498;2023-02-12T08:16:30;36.50;;;14.55;;
77202;SDS011;66327;50.096;8.498;2023-02-12T08:19:01;41.30;;;15.75;;
77202;SDS011;66327;50.096;8.498;2023-02-12T08:21:43;42.60;;;15.75;;
77202;SDS011;66327;50.096;8.498;2023-02-12T08:24:12;38.50;;;15.23;;
77202;SDS011;66327;50.096;8.498;2023-02-12T08:26:38;39.33;;;15.98;;
77202;SDS011;66327;50.096;8.498;2023-02-12T08:29:09;38.55;;;16.48;;
77202;SDS011;66327;50.096;8.498;2023-02-12T08:31:38;46.08;;;17.75;;
77202;SDS011;66327;50.096;8.498;2023-02-12T08:34:06;41.58;;;16.02;;
77202;SDS011;66327;50.096;8.498;2023-02-12T08:36:37;38.90;;;16.13;;
77202;SDS011;66327;50.096;8.498;2023-02-12T08:39:05;42.88;;;15.82;;
77202;SDS011;66327;50.096;8.498;2023-02-12T08:41:33;43.00;;;16.67;;
77202;SDS011;66327;50.096;8.498;2023-02-12T08:44:03;42.85;;;16.48;;
77202;SDS011;66327;50.096;8.498;2023-02-12T08:46:31;51.53;;;16.70;;
77202;SDS011;66327;50.096;8.498;2023-02-12T08:49:02;39.97;;;16.55;;
77202;SDS011;66327;50.096;8.498;2023-02-12T08:51:32;54.97;;;19.77;;
77202;SDS011;66327;50.096;8.498;2023-02-12T08:54:01;53.25;;;19.95;;
77202;SDS011;66327;50.096;8.498;2023-02-12T08:56:31;53.00;;;18.73;;
77202;SDS011;66327;50.096;8.498;2023-02-12T08:58:59;45.58;;;19.33;;
77202;SDS011;66327;50.096;8.498;2023-02-12T09:01:28;49.70;;;17.23;;
77202;SDS011;66327;50.096;8.498;2023-02-12T09:03:55;53.83;;;19.30;;
77202;SDS011;66327;50.096;8.498;2023-02-12T09:06:22;53.28;;;21.67;;
77202;SDS011;66327;50.096;8.498;2023-02-12T09:08:49;53.25;;;19.38;;
77202;SDS011;66327;50.096;8.498;2023-02-12T09:11:17;52.63;;;20.08;;
77202;SDS011;66327;50.096;8.498;2023-02-12T09:13:58;54.17;;;19.13;;
77202;SDS011;66327;50.096;8.498;2023-02-12T09:18:57;45.45;;;18.23;;
77202;SDS011;66327;50.096;8.498;2023-02-12T09:21:23;52.50;;;18.80;;
77202;SDS011;66327;50.096;8.498;2023-02-12T09:23:50;47.38;;;17.85;;
77202;SDS011;66327;50.096;8.498;2023-02-12T09:26:18;47.80;;;20.17;;
77202;SDS011;66327;50.096;8.498;2023-02-12T09:28:46;47.60;;;19.17;;
77202;SDS011;66327;50.096;8.498;2023-02-12T09:31:16;43.95;;;17.83;;
77202;SDS011;66327;50.096;8.498;2023-02-12T09:33:43;55.08;;;20.50;;
77202;SDS011;66327;50.096;8.498;2023-02-12T09:36:11;53.28;;;21.15;;
77202;SDS011;66327;50.096;8.498;2023-02-12T09:38:39;52.13;;;21.60;;
77202;SDS011;66327;50.096;8.498;2023-02-12T09:46:29;50.60;;;19.13;;
77202;SDS011;66327;50.096;8.498;2023-02-12T09:51:38;50.97;;;20.98;;
77202;SDS011;66327;50.096;8.498;2023-02-12T09:54:09;55.83;;;19.58;;
77202;SDS011;66327;50.096;8.498;2023-02-12T09:56:38;49.42;;;18.40;;
77202;SDS011;66327;50.096;8.498;2023-02-12T09:59:07;55.42;;;19.92;;
77202;SDS011;66327;50.096;8.498;2023-02-12T10:01:34;59.00;;;21.02;;
77202;SDS011;66327;50.096;8.498;2023-02-12T10:04:00;48.08;;;19.30;;
77202;SDS011;66327;50.096;8.498;2023-02-12T10:06:28;54.92;;;19.50;;
77202;SDS011;66327;50.096;8.498;2023-02-12T10:09:09;58.08;;;20.33;;
77202;SDS011;66327;50.096;8.498;2023-02-12T10:20:11;51.03;;;18.52;;
77202;SDS011;66327;50.096;8.498;2023-02-12T10:25:35;45.80;;;17.02;;
77202;SDS011;66327;50.096;8.498;2023-02-12T10:28:14;47.33;;;19.88;;
77202;SDS011;66327;50.096;8.498;2023-02-12T10:33:19;51.13;;;17.85;;
77202;SDS011;66327;50.096;8.498;2023-02-12T10:36:13;42.97;;;16.10;;
77202;SDS011;66327;50.096;8.498;2023-02-12T10:38:44;51.63;;;19.48;;
77202;SDS011;66327;50.096;8.498;2023-02-12T10:41:14;49.17;;;19.65;;
77202;SDS011;66327;50.096;8.498;2023-02-12T10:43:41;50.95;;;18.85;;
77202;SDS011;66327;50.096;8.498;2023-02-12T10:46:15;52.67;;;19.88;;
77202;SDS011;66327;50.096;8.498;2023-02-12T10:48:45;49.67;;;18.48;;
77202;SDS011;66327;50.096;8.498;2023-02-12T10:51:28;46.35;;;19.98;;
77202;SDS011;66327;50.096;8.498;2023-02-12T10:54:35;56.85;;;21.40;;
77202;SDS011;66327;50.096;8.498;2023-02-12T10:59:41;55.92;;;19.25;;
77202;SDS011;66327;50.096;8.498;2023-02-12T11:04:54;51.05;;;18.17;;
77202;SDS011;66327;50.096;8.498;2023-02-12T11:07:23;49.08;;;17.52;;
77202;SDS011;66327;50.096;8.498;2023-02-12T11:09:51;50.03;;;18.88;;
77202;SDS011;66327;50.096;8.498;2023-02-12T11:14:57;51.50;;;20.75;;
77202;SDS011;66327;50.096;8.498;2023-02-12T11:17:26;41.20;;;17.48;;
77202;SDS011;66327;50.096;8.498;2023-02-12T11:20:06;43.28;;;17.67;;
77202;SDS011;66327;50.096;8.498;2023-02-12T11:22:35;45.38;;;17.40;;
77202;SDS011;66327;50.096;8.498;2023-02-12T11:25:09;49.95;;;19.13;;
77202;SDS011;66327;50.096;8.498;2023-02-12T11:27:41;42.00;;;17.85;;
77202;SDS011;66327;50.096;8.498;2023-02-12T11:30:17;49.35;;;18.27;;
77202;SDS011;66327;50.096;8.498;2023-02-12T11:32:45;48.38;;;18.17;;
77202;SDS011;66327;50.096;8.498;2023-02-12T11:35:24;48.78;;;17.77;;
77202;SDS011;66327;50.096;8.498;2023-02-12T11:37:53;46.65;;;17.17;;
77202;SDS011;66327;50.096;8.498;2023-02-12T11:40:21;44.35;;;17.15;;
77202;SDS011;66327;50.096;8.498;2023-02-12T11:43:23;43.28;;;18.10;;
77202;SDS011;66327;50.096;8.498;2023-02-12T11:45:46;50.83;;;18.77;;
77202;SDS011;66327;50.096;8.498;2023-02-12T11:51:05;44.70;;;17.63;;
77202;SDS011;66327;50.096;8.498;2023-02-12T11:53:35;41.00;;;16.23;;
77202;SDS011;66327;50.096;8.498;2023-02-12T11:56:03;43.40;;;15.80;;
77202;SDS011;66327;50.096;8.498;2023-02-12T11:58:32;44.33;;;16.70;;
77202;SDS011;66327;50.096;8.498;2023-02-12T12:01:32;46.70;;;17.17;;
77202;SDS011;66327;50.096;8.498;2023-02-12T12:04:07;39.65;;;14.50;;
77202;SDS011;66327;50.096;8.498;2023-02-12T12:06:39;38.22;;;14.65;;
77202;SDS011;66327;50.096;8.498;2023-02-12T12:09:14;41.78;;;16.38;;
77202;SDS011;66327;50.096;8.498;2023-02-12T12:11:56;41.15;;;16.15;;
77202;SDS011;66327;50.096;8.498;2023-02-12T12:14:32;39.47;;;14.95;;
77202;SDS011;66327;50.096;8.498;2023-02-12T12:17:21;45.78;;;15.38;;
77202;SDS011;66327;50.096;8.498;2023-02-12T12:22:39;44.75;;;16.23;;
77202;SDS011;66327;50.096;8.498;2023-02-12T12:25:27;36.13;;;14.50;;
77202;SDS011;66327;50.096;8.498;2023-02-12T12:33:42;44.28;;;14.48;;
77202;SDS011;66327;50.096;8.498;2023-02-12T12:46:56;35.00;;;13.55;;
77202;SDS011;66327;50.096;8.498;2023-02-12T12:52:17;35.42;;;13.35;;
77202;SDS011;66327;50.096;8.498;2023-02-12T12:54:58;32.80;;;13.15;;
77202;SDS011;66327;50.096;8.498;2023-02-12T13:08:48;30.08;;;13.10;;
77202;SDS011;66327;50.096;8.498;2023-02-12T13:11:34;28.75;;;11.68;;
77202;SDS011;66327;50.096;8.498;2023-02-12T13:14:14;29.88;;;12.52;;
77202;SDS011;66327;50.096;8.498;2023-02-12T13:17:04;31.13;;;12.95;;
77202;SDS011;66327;50.096;8.498;2023-02-12T13:22:20;27.67;;;10.48;;
77202;SDS011;66327;50.096;8.498;2023-02-12T13:24:54;22.65;;;10.18;;
77202;SDS011;66327;50.096;8.498;2023-02-12T13:32:41;26.40;;;11.07;;
77202;SDS011;66327;50.096;8.498;2023-02-12T13:35:18;26.38;;;10.63;;
77202;SDS011;66327;50.096;8.498;2023-02-12T13:37:50;23.50;;;9.95;;
77202;SDS011;66327;50.096;8.498;2023-02-12T13:40:20;24.48;;;10.43;;
77202;SDS011;66327;50.096;8.498;2023-02-12T13:45:41;20.02;;;8.70;;
77202;SDS011;66327;50.096;8.498;2023-02-12T13:48:21;22.58;;;9.82;;
77202;SDS011;66327;50.096;8.498;2023-02-12T13:54:47;20.42;;;9.32;;
77202;SDS011;66327;50.096;8.498;2023-02-12T13:57:01;20.77;;;9.43;;
77202;SDS011;66327;50.096;8.498;2023-02-12T14:01:58;19.77;;;9.35;;
77202;SDS011;66327;50.096;8.498;2023-02-12T14:05:38;19.85;;;8.50;;
77202;SDS011;66327;50.096;8.498;2023-02-12T14:07:59;20.63;;;8.27;;
77202;SDS011;66327;50.096;8.498;2023-02-12T14:10:36;20.10;;;8.57;;
77202;SDS011;66327;50.096;8.498;2023-02-12T14:13:16;19.17;;;8.30;;
77202;SDS011;66327;50.096;8.498;2023-02-12T14:15:46;17.50;;;7.88;;
77202;SDS011;66327;50.096;8.498;2023-02-12T14:18:22;16.27;;;7.55;;
77202;SDS011;66327;50.096;8.498;2023-02-12T14:23:39;16.75;;;7.15;;
77202;SDS011;66327;50.096;8.498;2023-02-12T14:26:14;19.58;;;8.00;;
77202;SDS011;66327;50.096;8.498;2023-02-12T14:33:44;18.52;;;8.55;;
77202;SDS011;66327;50.096;8.498;2023-02-12T14:41:46;13.40;;;5.45;;
77202;SDS011;66327;50.096;8.498;2023-02-12T14:46:46;16.25;;;6.35;;
77202;SDS011;66327;50.096;8.498;2023-02-12T14:49:19;17.10;;;6.72;;
77202;SDS011;66327;50.096;8.498;2023-02-12T14:51:59;16.75;;;7.18;;
77202;SDS011;66327;50.096;8.498;2023-02-12T14:54:34;13.63;;;6.53;;
77202;SDS011;66327;50.096;8.498;2023-02-12T14:57:10;11.70;;;5.30;;
77202;SDS011;66327;50.096;8.498;2023-02-12T14:59:40;13.00;;;5.70;;
77202;SDS011;66327;50.096;8.498;2023-02-12T15:02:12;14.82;;;6.90;;
77202;SDS011;66327;50.096;8.498;2023-02-12T15:04:47;13.10;;;5.75;;
77202;SDS011;66327;50.096;8.498;2023-02-12T15:07:16;18.42;;;8.10;;
77202;SDS011;66327;50.096;8.498;2023-02-12T15:09:54;20.58;;;7.47;;
77202;SDS011;66327;50.096;8.498;2023-02-12T15:12:29;15.85;;;7.00;;
77202;SDS011;66327;50.096;8.498;2023-02-12T15:15:00;18.38;;;7.90;;
77202;SDS011;66327;50.096;8.498;2023-02-12T15:17:32;16.88;;;6.45;;
77202;SDS011;66327;50.096;8.498;2023-02-12T15:20:01;17.10;;;7.75;;
77202;SDS011;66327;50.096;8.498;2023-02-12T15:22:33;18.77;;;8.57;;
77202;SDS011;66327;50.096;8.498;2023-02-12T15:27:57;15.70;;;6.60;;
77202;SDS011;66327;50.096;8.498;2023-02-12T15:30:29;18.08;;;7.22;;
77202;SDS011;66327;50.096;8.498;2023-02-12T15:32:58;17.42;;;7.43;;
77202;SDS011;66327;50.096;8.498;2023-02-12T15:35:31;16.10;;;7.32;;
77202;SDS011;66327;50.096;8.498;2023-02-12T15:38:02;13.25;;;6.30;;
77202;SDS011;66327;50.096;8.498;2023-02-12T15:40:30;15.27;;;7.15;;
77202;SDS011;66327;50.096;8.498;2023-02-12T15:43:00;17.00;;;7.45;;
77202;SDS011;66327;50.096;8.498;2023-02-12T15:45:32;15.95;;;6.30;;
77202;SDS011;66327;50.096;8.498;2023-02-12T15:48:09;16.92;;;6.35;;
77202;SDS011;66327;50.096;8.498;2023-02-12T15:50:52;14.07;;;6.25;;
77202;SDS011;66327;50.096;8.498;2023-02-12T15:53:21;13.57;;;6.18;;
77202;SDS011;66327;50.096;8.498;2023-02-12T15:55:49;13.85;;;6.18;;
77202;SDS011;66327;50.096;8.498;2023-02-12T15:58:59;15.38;;;6.28;;
77202;SDS011;66327;50.096;8.498;2023-02-12T16:01:20;14.30;;;6.40;;
77202;SDS011;66327;50.096;8.498;2023-02-12T16:03:58;15.75;;;6.75;;
77202;SDS011;66327;50.096;8.498;2023-02-12T16:06:27;15.93;;;6.78;;
77202;SDS011;66327;50.096;8.498;2023-02-12T16:08:57;14.07;;;6.10;;
77202;SDS011;66327;50.096;8.498;2023-02-12T16:11:27;15.43;;;6.97;;
77202;SDS011;66327;50.096;8.498;2023-02-12T16:13:55;16.85;;;7.45;;
77202;SDS011;66327;50.096;8.498;2023-02-12T16:16:26;15.65;;;6.53;;
77202;SDS011;66327;50.096;8.498;2023-02-12T16:19:05;13.00;;;6.13;;
77202;SDS011;66327;50.096;8.498;2023-02-12T16:21:58;12.60;;;5.85;;
77202;SDS011;66327;50.096;8.498;2023-02-12T16:24:30;17.02;;;6.05;;
77202;SDS011;66327;50.096;8.498;2023-02-12T16:27:08;16.58;;;6.35;;
77202;SDS011;66327;50.096;8.498;2023-02-12T16:29:44;15.38;;;6.45;;
77202;SDS011;66327;50.096;8.498;2023-02-12T16:42:54;17.73;;;6.65;;
77202;SDS011;66327;50.096;8.498;2023-02-12T16:48:00;19.55;;;7.90;;
77202;SDS011;66327;50.096;8.498;2023-02-12T16:50:32;18.67;;;7.63;;
77202;SDS011;66327;50.096;8.498;2023-02-12T16:53:06;19.17;;;7.55;;
77202;SDS011;66327;50.096;8.498;2023-02-12T16:55:40;19.92;;;8.75;;
77202;SDS011;66327;50.096;8.498;2023-02-12T16:58:07;22.40;;;7.97;;
77202;SDS011;66327;50.096;8.498;2023-02-12T17:00:33;21.75;;;7.60;;
77202;SDS011;66327;50.096;8.498;2023-02-12T17:03:00;19.15;;;7.47;;
77202;SDS011;66327;50.096;8.498;2023-02-12T17:05:27;20.42;;;7.40;;
77202;SDS011;66327;50.096;8.498;2023-02-12T17:07:54;20.63;;;7.90;;
77202;SDS011;66327;50.096;8.498;2023-02-12T17:10:20;22.40;;;8.48;;
77202;SDS011;66327;50.096;8.498;2023-02-12T17:12:48;23.80;;;8.60;;
77202;SDS011;66327;50.096;8.498;2023-02-12T17:15:17;25.77;;;8.55;;
77202;SDS011;66327;50.096;8.498;2023-02-12T17:17:46;22.45;;;8.07;;
77202;SDS011;66327;50.096;8.498;2023-02-12T17:20:12;22.20;;;8.70;;
77202;SDS011;66327;50.096;8.498;2023-02-12T17:22:39;23.13;;;8.77;;
77202;SDS011;66327;50.096;8.498;2023-02-12T17:25:19;20.13;;;7.93;;
77202;SDS011;66327;50.096;8.498;2023-02-12T17:27:45;20.63;;;7.80;;
77202;SDS011;66327;50.096;8.498;2023-02-12T17:30:16;22.90;;;7.95;;